Tabas, Iran
Current Conditions -  °F | °C
As of 3:00 AM on Tuesday 21 Oct 2014 (Local Time) from OIMB Reporting Station
Clear Clear  
Wind Chill: 61°   Ceiling: Unl
Heat Index: 61°   Visibility: 6mi
Dew Point: 37°   Wind: 7mph
Humidity: 42%   Direction: 120°ESE
Pressure: 30.15"   Gusts: NA
Location:  33.59°N, 56.92°E
Report Text: OIMB 210000Z 12006KT CAVOK 16/03 Q1021
Loading
Personal Weather Stations






























Interactive Weather Map New forecast layout! Learn more

10-Day Weather Forecast

Advertisements
Track Severe Weather on mobile